Time;durP1;ratioP1;P1;durP2;ratioP2;P2;SDS_P1;SDS_P2;PMS_P1;PMS_P2;Temp;Humidity;BMP_temperature;BMP_pressure;BME280_temperature;BME280_humidity;BME280_pressure;Samples;Min_cycle;Max_cycle;Signal;HPM_P1;HPM_P2
2022/08/06 00:00:12;;;;;;;3.40;2.20;;;;;;;;;;105392;1298;25219;-26
2022/08/06 00:02:38;;;;;;;3.60;2.60;;;;;;;;;;105641;1303;25238;-26
2022/08/06 00:05:04;;;;;;;3.20;2.50;;;;;;;;;;105548;1296;25241;-25
2022/08/06 00:07:30;;;;;;;4.50;2.90;;;;;;;;;;105621;1296;25168;-29
2022/08/06 00:09:56;;;;;;;6.10;2.50;;;;;;;;;;105502;1295;25194;-29
2022/08/06 00:12:21;;;;;;;3.20;2.20;;;;;;;;;;105615;1298;25368;-24
2022/08/06 00:14:47;;;;;;;5.40;2.70;;;;;;;;;;105572;1295;25338;-29
2022/08/06 00:17:12;;;;;;;7.00;2.70;;;;;;;;;;105494;1295;25286;-25
2022/08/06 00:19:38;;;;;;;2.40;2.10;;;;;;;;;;105554;1303;25224;-26
2022/08/06 00:22:04;;;;;;;2.40;2.20;;;;;;;;;;105583;1295;25193;-30
2022/08/06 00:24:29;;;;;;;5.70;2.00;;;;;;;;;;105354;1299;25350;-30
2022/08/06 00:26:55;;;;;;;7.40;3.20;;;;;;;;;;105406;1303;25282;-26
2022/08/06 00:29:20;;;;;;;2.60;2.40;;;;;;;;;;105576;1296;25207;-29
2022/08/06 00:31:46;;;;;;;2.40;2.20;;;;;;;;;;105547;1295;25197;-25
2022/08/06 00:34:11;;;;;;;3.40;2.50;;;;;;;;;;105599;1303;25235;-25
2022/08/06 00:36:36;;;;;;;1.90;1.50;;;;;;;;;;105563;1299;25353;-29
2022/08/06 00:39:03;;;;;;;3.10;2.90;;;;;;;;;;105559;1296;25319;-25
2022/08/06 00:41:29;;;;;;;2.70;2.10;;;;;;;;;;105532;1298;25245;-25
2022/08/06 00:43:55;;;;;;;2.60;2.40;;;;;;;;;;105422;1303;25213;-25
2022/08/06 00:46:21;;;;;;;3.70;2.30;;;;;;;;;;105616;1296;25204;-27
2022/08/06 00:48:47;;;;;;;5.50;3.00;;;;;;;;;;105527;1298;25222;-25
2022/08/06 00:51:13;;;;;;;2.90;2.70;;;;;;;;;;105626;1295;25302;-27
2022/08/06 00:53:39;;;;;;;11.30;2.50;;;;;;;;;;105549;1303;25258;-31
2022/08/06 00:56:04;;;;;;;3.70;2.50;;;;;;;;;;105520;1289;25129;-30
2022/08/06 00:58:30;;;;;;;2.60;2.20;;;;;;;;;;105548;1295;25235;-26
2022/08/06 01:00:55;;;;;;;2.90;2.60;;;;;;;;;;105548;1296;25290;-25
2022/08/06 01:03:21;;;;;;;9.00;2.40;;;;;;;;;;105592;1303;25300;-25
2022/08/06 01:05:47;;;;;;;8.00;2.40;;;;;;;;;;105231;1304;25193;-26
2022/08/06 01:08:13;;;;;;;2.50;1.80;;;;;;;;;;105385;1298;25238;-29
2022/08/06 01:10:38;;;;;;;6.10;2.10;;;;;;;;;;105580;1303;25197;-37
2022/08/06 01:13:04;;;;;;;2.90;1.80;;;;;;;;;;105587;1296;23603;-24
2022/08/06 01:15:29;;;;;;;5.10;2.60;;;;;;;;;;105560;1295;25202;-29
2022/08/06 01:17:56;;;;;;;3.60;2.80;;;;;;;;;;105600;1303;22487;-26
2022/08/06 01:20:29;;;;;;;8.20;2.50;;;;;;;;;;105623;1303;25226;-26
2022/08/06 01:22:58;;;;;;;3.10;2.90;;;;;;;;;;105502;1296;25202;-29
2022/08/06 01:25:28;;;;;;;7.90;2.80;;;;;;;;;;105540;1298;25343;-29
2022/08/06 01:27:57;;;;;;;4.30;3.00;;;;;;;;;;105597;1298;25222;-24
2022/08/06 01:30:23;;;;;;;2.70;2.50;;;;;;;;;;105550;1289;23913;-25
2022/08/06 01:32:52;;;;;;;3.40;2.80;;;;;;;;;;105441;1299;25194;-27
2022/08/06 01:35:18;;;;;;;5.00;2.60;;;;;;;;;;105611;1298;25236;-27
2022/08/06 01:37:46;;;;;;;13.50;4.50;;;;;;;;;;105641;1298;25290;-25
2022/08/06 01:40:13;;;;;;;5.60;2.90;;;;;;;;;;105624;1296;25231;-29
2022/08/06 01:42:38;;;;;;;3.90;2.60;;;;;;;;;;105619;1296;22680;-31
2022/08/06 01:45:05;;;;;;;5.80;3.80;;;;;;;;;;105358;1298;25222;-27
2022/08/06 01:47:30;;;;;;;3.40;2.90;;;;;;;;;;105553;1303;25197;-30
2022/08/06 01:49:57;;;;;;;3.00;2.60;;;;;;;;;;105601;1298;25375;-28
2022/08/06 01:52:23;;;;;;;4.70;3.00;;;;;;;;;;105593;1296;25229;-25
2022/08/06 01:54:49;;;;;;;5.80;2.50;;;;;;;;;;105604;1298;25237;-29
2022/08/06 01:57:15;;;;;;;3.00;2.70;;;;;;;;;;105590;1298;25195;-25
2022/08/06 01:59:42;;;;;;;10.70;3.30;;;;;;;;;;105662;1297;25236;-25
2022/08/06 02:02:08;;;;;;;3.60;2.80;;;;;;;;;;105614;1296;25275;-26
2022/08/06 02:04:35;;;;;;;3.30;2.90;;;;;;;;;;105598;1296;25343;-27
2022/08/06 02:07:00;;;;;;;4.00;3.10;;;;;;;;;;105541;1303;25261;-25
2022/08/06 02:09:26;;;;;;;4.90;2.80;;;;;;;;;;105536;1298;25343;-25
2022/08/06 02:11:54;;;;;;;3.70;3.30;;;;;;;;;;105515;1296;25284;-26
2022/08/06 02:14:20;;;;;;;8.20;3.70;;;;;;;;;;105672;1298;25347;-25
2022/08/06 02:16:45;;;;;;;5.90;3.20;;;;;;;;;;105504;1303;25235;-31
2022/08/06 02:19:12;;;;;;;3.20;3.00;;;;;;;;;;105600;1296;25193;-31
2022/08/06 02:21:38;;;;;;;4.10;3.40;;;;;;;;;;105587;1298;25283;-28
2022/08/06 02:24:04;;;;;;;3.70;3.40;;;;;;;;;;105537;1299;25321;-30
2022/08/06 02:26:30;;;;;;;8.00;2.70;;;;;;;;;;105537;1289;25196;-28
2022/08/06 02:28:56;;;;;;;4.90;3.90;;;;;;;;;;105546;1296;25206;-28
2022/08/06 02:31:21;;;;;;;8.10;2.90;;;;;;;;;;105458;1303;25431;-27
2022/08/06 02:33:46;;;;;;;4.20;3.40;;;;;;;;;;105615;1295;25234;-29
2022/08/06 02:36:16;;;;;;;3.80;3.30;;;;;;;;;;105520;1296;25197;-29
2022/08/06 02:38:45;;;;;;;4.40;4.00;;;;;;;;;;105554;1289;25199;-26
2022/08/06 02:41:12;;;;;;;8.20;4.20;;;;;;;;;;105616;1298;25206;-29
2022/08/06 02:43:39;;;;;;;3.80;3.40;;;;;;;;;;105109;1299;25339;-25
2022/08/06 02:46:05;;;;;;;4.60;3.60;;;;;;;;;;105589;1296;25243;-28
2022/08/06 02:48:33;;;;;;;3.80;3.50;;;;;;;;;;105550;1299;25223;-27
2022/08/06 02:50:59;;;;;;;5.80;3.90;;;;;;;;;;105637;1296;25193;-29
2022/08/06 02:53:30;;;;;;;3.10;2.90;;;;;;;;;;105634;1297;25186;-25
2022/08/06 02:55:56;;;;;;;2.70;2.50;;;;;;;;;;105606;1303;25260;-28
2022/08/06 02:58:23;;;;;;;4.10;3.40;;;;;;;;;;105549;1299;25225;-29
2022/08/06 03:00:49;;;;;;;4.50;3.60;;;;;;;;;;105546;1299;25194;-25
2022/08/06 03:03:15;;;;;;;3.80;3.20;;;;;;;;;;105557;1298;25226;-29
2022/08/06 03:05:41;;;;;;;11.00;3.50;;;;;;;;;;105568;1298;26583;-25
2022/08/06 03:08:07;;;;;;;4.00;3.70;;;;;;;;;;105619;1298;25191;-25
2022/08/06 03:10:32;;;;;;;7.50;4.10;;;;;;;;;;105635;1296;25241;-25
2022/08/06 03:12:58;;;;;;;4.70;3.60;;;;;;;;;;105529;1303;25251;-30
2022/08/06 03:15:23;;;;;;;3.40;3.10;;;;;;;;;;105617;1299;25353;-25
2022/08/06 03:17:49;;;;;;;6.50;3.90;;;;;;;;;;105516;1296;25223;-31
2022/08/06 03:20:15;;;;;;;4.60;4.10;;;;;;;;;;105541;1296;25234;-29
2022/08/06 03:22:41;;;;;;;4.00;3.60;;;;;;;;;;105521;1298;25228;-29
2022/08/06 03:25:07;;;;;;;5.80;4.40;;;;;;;;;;105632;1298;26676;-28
2022/08/06 03:27:32;;;;;;;5.90;4.40;;;;;;;;;;105591;1297;25228;-27
2022/08/06 03:29:57;;;;;;;4.60;4.20;;;;;;;;;;105527;1296;25197;-31
2022/08/06 03:32:23;;;;;;;7.30;5.40;;;;;;;;;;105551;1298;25273;-30
2022/08/06 03:34:48;;;;;;;6.60;5.30;;;;;;;;;;105481;1296;25232;-26
2022/08/06 03:37:15;;;;;;;9.80;6.20;;;;;;;;;;105563;1296;25257;-25
2022/08/06 03:39:41;;;;;;;4.60;4.10;;;;;;;;;;105532;1296;25199;-28
2022/08/06 03:42:06;;;;;;;5.10;4.40;;;;;;;;;;105595;1299;25244;-27
2022/08/06 03:44:32;;;;;;;4.30;3.80;;;;;;;;;;105503;1298;25289;-25
2022/08/06 03:46:59;;;;;;;5.10;4.10;;;;;;;;;;105519;1296;25239;-28
2022/08/06 03:49:27;;;;;;;4.50;3.90;;;;;;;;;;105566;1298;25194;-27
2022/08/06 03:51:53;;;;;;;7.20;6.60;;;;;;;;;;105658;1303;25222;-30
2022/08/06 03:54:23;;;;;;;6.20;4.40;;;;;;;;;;105613;1298;25338;-28
2022/08/06 03:56:48;;;;;;;7.20;6.10;;;;;;;;;;105583;1296;24323;-25
2022/08/06 03:59:14;;;;;;;7.20;6.20;;;;;;;;;;105569;1296;26456;-30
2022/08/06 04:01:41;;;;;;;6.40;5.00;;;;;;;;;;105583;1299;25282;-30
2022/08/06 04:04:06;;;;;;;6.00;5.40;;;;;;;;;;105561;1299;25212;-25
2022/08/06 04:06:31;;;;;;;6.20;5.50;;;;;;;;;;104815;1303;1003010;-24
2022/08/06 04:08:57;;;;;;;4.90;4.20;;;;;;;;;;105570;1298;25397;-28
2022/08/06 04:11:22;;;;;;;6.80;5.20;;;;;;;;;;105546;1303;25219;-29
2022/08/06 04:13:48;;;;;;;6.40;5.40;;;;;;;;;;105551;1296;25223;-28
2022/08/06 04:16:13;;;;;;;13.00;5.70;;;;;;;;;;105532;1303;25232;-31
2022/08/06 04:18:39;;;;;;;4.40;4.00;;;;;;;;;;105605;1303;22513;-27
2022/08/06 04:21:05;;;;;;;6.30;5.20;;;;;;;;;;105644;1296;26645;-25
2022/08/06 04:23:30;;;;;;;5.50;4.80;;;;;;;;;;105552;1296;25175;-29
2022/08/06 04:25:56;;;;;;;4.90;3.80;;;;;;;;;;104881;1303;1003831;-30
2022/08/06 04:28:23;;;;;;;4.00;3.70;;;;;;;;;;105531;1299;26495;-24
2022/08/06 04:30:48;;;;;;;5.40;4.20;;;;;;;;;;105552;1296;25394;-25
2022/08/06 04:33:14;;;;;;;5.20;4.70;;;;;;;;;;105533;1283;25197;-32
2022/08/06 04:35:40;;;;;;;6.30;5.60;;;;;;;;;;105596;1303;25245;-25
2022/08/06 04:38:06;;;;;;;4.80;4.40;;;;;;;;;;105626;1296;25238;-26
2022/08/06 04:40:32;;;;;;;4.70;3.30;;;;;;;;;;105628;1298;25202;-30
2022/08/06 04:42:57;;;;;;;4.70;4.30;;;;;;;;;;105575;1299;25244;-25
2022/08/06 04:45:23;;;;;;;7.30;3.70;;;;;;;;;;105528;1296;25410;-30
2022/08/06 04:47:49;;;;;;;5.40;4.10;;;;;;;;;;105482;1299;25348;-25
2022/08/06 04:50:14;;;;;;;5.50;5.10;;;;;;;;;;105514;1296;25273;-30
2022/08/06 04:52:40;;;;;;;4.60;4.10;;;;;;;;;;105409;1299;25254;-30
2022/08/06 04:55:07;;;;;;;7.10;6.50;;;;;;;;;;105661;1296;25276;-30
2022/08/06 04:57:32;;;;;;;8.10;6.00;;;;;;;;;;105612;1298;25196;-30
2022/08/06 04:59:58;;;;;;;6.50;5.90;;;;;;;;;;105568;1296;25298;-30
2022/08/06 05:02:23;;;;;;;5.40;4.90;;;;;;;;;;105537;1296;25245;-26
2022/08/06 05:04:55;;;;;;;4.30;4.00;;;;;;;;;;105577;1296;25298;-24
2022/08/06 05:07:22;;;;;;;5.80;5.00;;;;;;;;;;105652;1296;25231;-30
2022/08/06 05:09:48;;;;;;;5.80;4.50;;;;;;;;;;105580;1298;25277;-25
2022/08/06 05:12:13;;;;;;;10.80;3.70;;;;;;;;;;105573;1296;22450;-26
2022/08/06 05:14:41;;;;;;;3.10;2.40;;;;;;;;;;105563;1296;25197;-31
2022/08/06 05:17:06;;;;;;;3.10;2.90;;;;;;;;;;105567;1298;25226;-29
2022/08/06 05:19:34;;;;;;;2.70;2.10;;;;;;;;;;105528;1299;25200;-25
2022/08/06 05:21:59;;;;;;;2.10;1.90;;;;;;;;;;105606;1299;25216;-25
2022/08/06 05:24:25;;;;;;;2.90;2.20;;;;;;;;;;105621;1296;25235;-29
2022/08/06 05:26:50;;;;;;;1.70;1.50;;;;;;;;;;105591;1296;25251;-29
2022/08/06 05:29:18;;;;;;;1.90;1.60;;;;;;;;;;105641;1296;25235;-30
2022/08/06 05:31:43;;;;;;;7.80;2.00;;;;;;;;;;105589;1296;25234;-31
2022/08/06 05:34:09;;;;;;;2.50;1.80;;;;;;;;;;105553;1296;25304;-25
2022/08/06 05:36:34;;;;;;;3.80;1.60;;;;;;;;;;105540;1303;25263;-30
2022/08/06 05:39:00;;;;;;;3.00;1.80;;;;;;;;;;105569;1296;26687;-29
2022/08/06 05:41:25;;;;;;;4.30;2.10;;;;;;;;;;105571;1296;25386;-30
2022/08/06 05:43:51;;;;;;;2.90;2.60;;;;;;;;;;105600;1303;25200;-24
2022/08/06 05:46:18;;;;;;;3.00;2.70;;;;;;;;;;105513;1296;25244;-26
2022/08/06 05:48:49;;;;;;;4.20;2.90;;;;;;;;;;105530;1298;25229;-26
2022/08/06 05:51:18;;;;;;;4.30;3.10;;;;;;;;;;105053;1303;716051;-30
2022/08/06 05:53:45;;;;;;;6.00;3.70;;;;;;;;;;105649;1298;25235;-30
2022/08/06 05:56:12;;;;;;;2.70;2.40;;;;;;;;;;105595;1299;26547;-29
2022/08/06 05:58:40;;;;;;;4.00;2.70;;;;;;;;;;105698;1295;25303;-24
2022/08/06 06:01:07;;;;;;;4.20;3.10;;;;;;;;;;105588;1296;25223;-30
2022/08/06 06:03:33;;;;;;;3.50;1.60;;;;;;;;;;105547;1303;26456;-25
2022/08/06 06:05:59;;;;;;;2.70;2.00;;;;;;;;;;105645;1303;25191;-25
2022/08/06 06:08:25;;;;;;;6.10;3.30;;;;;;;;;;105546;1296;25175;-24
2022/08/06 06:10:51;;;;;;;2.10;1.90;;;;;;;;;;105642;1299;25205;-29
2022/08/06 06:13:16;;;;;;;2.30;2.10;;;;;;;;;;105600;1303;25235;-24
2022/08/06 06:15:44;;;;;;;1.60;1.30;;;;;;;;;;105594;1296;25197;-26
2022/08/06 06:18:12;;;;;;;3.80;1.50;;;;;;;;;;105556;1299;25231;-25
2022/08/06 06:20:39;;;;;;;3.40;1.60;;;;;;;;;;105616;1303;25338;-25
2022/08/06 06:23:08;;;;;;;3.30;2.00;;;;;;;;;;105519;1296;25222;-29
2022/08/06 06:25:35;;;;;;;3.40;2.20;;;;;;;;;;105389;1303;25174;-26
2022/08/06 06:28:02;;;;;;;2.50;1.70;;;;;;;;;;105561;1303;25288;-24
2022/08/06 06:30:31;;;;;;;2.10;1.90;;;;;;;;;;105518;1302;25197;-28
2022/08/06 06:33:03;;;;;;;1.60;1.10;;;;;;;;;;105607;1299;22455;-30
2022/08/06 06:35:33;;;;;;;1.30;1.20;;;;;;;;;;105541;1298;25240;-24
2022/08/06 06:37:59;;;;;;;2.90;1.80;;;;;;;;;;105588;1289;25718;-24
2022/08/06 06:40:30;;;;;;;3.20;1.60;;;;;;;;;;105585;1299;25197;-29
2022/08/06 06:42:59;;;;;;;1.80;1.20;;;;;;;;;;105621;1298;25196;-24
2022/08/06 06:45:27;;;;;;;1.60;1.40;;;;;;;;;;105615;1299;25190;-30
2022/08/06 06:47:56;;;;;;;6.50;1.70;;;;;;;;;;105564;1299;25225;-29
2022/08/06 06:50:22;;;;;;;1.60;1.40;;;;;;;;;;105642;1289;25386;-30
2022/08/06 06:52:49;;;;;;;4.20;2.30;;;;;;;;;;105577;1299;25196;-25
2022/08/06 06:55:15;;;;;;;2.60;1.90;;;;;;;;;;105624;1299;25229;-26
2022/08/06 06:57:43;;;;;;;7.20;2.30;;;;;;;;;;105590;1303;25247;-25
2022/08/06 07:00:09;;;;;;;2.40;1.50;;;;;;;;;;105589;1297;25203;-25
2022/08/06 07:02:35;;;;;;;2.20;1.70;;;;;;;;;;105577;1299;25216;-26
2022/08/06 07:05:02;;;;;;;2.50;1.80;;;;;;;;;;105618;1298;25194;-25
2022/08/06 07:07:29;;;;;;;4.30;1.50;;;;;;;;;;105582;1298;25226;-26
2022/08/06 07:09:54;;;;;;;2.30;2.10;;;;;;;;;;105578;1298;25315;-31
2022/08/06 07:12:20;;;;;;;3.10;1.40;;;;;;;;;;105508;1299;25299;-30
2022/08/06 07:14:45;;;;;;;2.20;1.60;;;;;;;;;;105410;1298;25206;-31
2022/08/06 07:17:11;;;;;;;2.90;2.00;;;;;;;;;;105669;1299;25226;-26
2022/08/06 07:19:37;;;;;;;2.90;1.80;;;;;;;;;;105580;1303;22513;-25
2022/08/06 07:22:02;;;;;;;2.60;2.40;;;;;;;;;;105633;1283;25297;-27
2022/08/06 07:24:30;;;;;;;3.20;2.30;;;;;;;;;;105523;1303;25419;-30
2022/08/06 07:26:56;;;;;;;3.80;2.90;;;;;;;;;;105570;1296;25344;-32
2022/08/06 07:29:21;;;;;;;4.60;2.20;;;;;;;;;;105595;1299;25244;-26
2022/08/06 07:31:47;;;;;;;2.90;2.50;;;;;;;;;;105531;1296;25223;-30
2022/08/06 07:34:13;;;;;;;4.80;2.40;;;;;;;;;;105602;1303;25240;-30
2022/08/06 07:36:41;;;;;;;5.70;3.40;;;;;;;;;;105593;1299;25196;-25
2022/08/06 07:39:08;;;;;;;3.20;2.70;;;;;;;;;;105526;1303;25197;-31
2022/08/06 07:41:34;;;;;;;3.00;2.50;;;;;;;;;;105573;1296;25213;-26
2022/08/06 07:44:00;;;;;;;6.10;4.10;;;;;;;;;;105574;1296;25298;-30
2022/08/06 07:46:28;;;;;;;6.50;3.50;;;;;;;;;;105595;1299;25281;-24
2022/08/06 07:48:54;;;;;;;5.70;4.00;;;;;;;;;;105531;1298;25178;-30
2022/08/06 07:51:23;;;;;;;3.90;3.20;;;;;;;;;;105411;1298;22704;-25
2022/08/06 07:53:48;;;;;;;6.00;4.70;;;;;;;;;;105581;1303;25293;-31
2022/08/06 07:56:14;;;;;;;9.40;3.60;;;;;;;;;;105550;1302;25277;-26
2022/08/06 07:58:40;;;;;;;11.70;3.30;;;;;;;;;;105548;1297;22519;-27
2022/08/06 08:01:06;;;;;;;8.70;3.80;;;;;;;;;;105569;1303;25387;-23
2022/08/06 08:08:30;;;;;;;3.10;2.90;;;;;;;;;;105528;1299;25233;-31
2022/08/06 08:10:55;;;;;;;7.10;4.00;;;;;;;;;;105499;1296;25197;-30
2022/08/06 08:13:21;;;;;;;11.10;3.70;;;;;;;;;;105535;1296;25187;-24
2022/08/06 08:15:47;;;;;;;7.10;4.50;;;;;;;;;;105553;1298;25350;-28
2022/08/06 08:18:12;;;;;;;5.60;3.90;;;;;;;;;;105516;1296;25286;-29
2022/08/06 08:20:39;;;;;;;7.30;4.20;;;;;;;;;;105544;1296;25196;-30
2022/08/06 08:23:05;;;;;;;4.00;3.70;;;;;;;;;;105546;1298;25184;-24
2022/08/06 08:25:30;;;;;;;4.00;3.50;;;;;;;;;;105595;1298;25442;-24
2022/08/06 08:27:56;;;;;;;12.90;3.80;;;;;;;;;;105506;1298;26441;-30
2022/08/06 08:30:21;;;;;;;7.60;3.70;;;;;;;;;;105439;1299;26462;-27
2022/08/06 08:32:47;;;;;;;10.30;4.40;;;;;;;;;;105535;1296;25187;-24
2022/08/06 08:35:15;;;;;;;4.00;3.60;;;;;;;;;;105576;1296;25203;-25
2022/08/06 08:37:41;;;;;;;9.20;5.20;;;;;;;;;;105576;1296;25229;-30
2022/08/06 08:40:07;;;;;;;5.20;4.50;;;;;;;;;;105510;1296;23918;-27
2022/08/06 08:42:35;;;;;;;6.40;4.70;;;;;;;;;;105528;1298;25337;-25
2022/08/06 08:45:00;;;;;;;5.30;4.40;;;;;;;;;;105673;1296;24245;-24
2022/08/06 08:47:26;;;;;;;3.90;3.50;;;;;;;;;;105550;1301;25293;-24
2022/08/06 08:49:54;;;;;;;3.90;3.50;;;;;;;;;;105589;1287;25288;-26
2022/08/06 08:52:24;;;;;;;5.50;4.10;;;;;;;;;;105566;1299;25216;-25
2022/08/06 08:54:50;;;;;;;4.90;2.80;;;;;;;;;;105603;1301;25225;-30
2022/08/06 08:57:16;;;;;;;4.00;3.60;;;;;;;;;;105598;1299;25238;-25
2022/08/06 08:59:41;;;;;;;5.10;3.90;;;;;;;;;;105521;1303;25372;-25
2022/08/06 09:02:07;;;;;;;5.90;3.30;;;;;;;;;;105607;1296;25264;-25
2022/08/06 09:04:33;;;;;;;3.10;2.50;;;;;;;;;;105599;1296;25231;-32
2022/08/06 09:06:58;;;;;;;2.80;2.20;;;;;;;;;;105544;1296;25202;-32
2022/08/06 09:09:24;;;;;;;4.40;2.70;;;;;;;;;;105618;1296;25175;-30
2022/08/06 09:11:49;;;;;;;3.20;2.80;;;;;;;;;;105603;1303;23778;-26
2022/08/06 09:14:15;;;;;;;4.70;3.40;;;;;;;;;;105571;1303;25244;-25
2022/08/06 09:16:40;;;;;;;5.00;2.60;;;;;;;;;;105586;1296;25234;-30
2022/08/06 09:19:06;;;;;;;7.20;4.40;;;;;;;;;;105507;1296;22514;-25
2022/08/06 09:21:33;;;;;;;6.20;2.50;;;;;;;;;;105578;1296;25212;-25
2022/08/06 09:23:58;;;;;;;4.20;3.30;;;;;;;;;;105626;1303;25197;-30
2022/08/06 09:26:24;;;;;;;7.00;3.90;;;;;;;;;;105549;1296;25186;-30
2022/08/06 09:28:50;;;;;;;4.50;2.00;;;;;;;;;;105544;1302;25350;-32
2022/08/06 09:31:17;;;;;;;4.00;2.60;;;;;;;;;;105426;1302;22507;-26
2022/08/06 09:33:52;;;;;;;3.70;3.30;;;;;;;;;;105417;1303;25284;-28
2022/08/06 09:36:18;;;;;;;5.10;3.30;;;;;;;;;;105579;1297;25346;-27
2022/08/06 09:38:47;;;;;;;2.90;2.40;;;;;;;;;;105658;1299;25238;-27
2022/08/06 09:41:13;;;;;;;8.10;3.30;;;;;;;;;;105685;1296;25241;-30
2022/08/06 09:43:38;;;;;;;7.20;3.10;;;;;;;;;;105552;1296;22516;-30
2022/08/06 09:46:04;;;;;;;3.70;3.30;;;;;;;;;;105478;1296;25200;-31
2022/08/06 09:48:29;;;;;;;3.50;3.20;;;;;;;;;;105636;1299;26561;-31
2022/08/06 09:50:55;;;;;;;6.70;5.20;;;;;;;;;;105519;1299;25197;-29
2022/08/06 09:53:22;;;;;;;10.10;3.10;;;;;;;;;;105549;1296;25197;-29
2022/08/06 09:55:49;;;;;;;3.30;2.50;;;;;;;;;;105508;1295;25216;-29
2022/08/06 09:58:25;;;;;;;4.10;3.80;;;;;;;;;;105525;1299;25245;-26
2022/08/06 10:00:51;;;;;;;3.20;2.90;;;;;;;;;;105482;1304;25310;-30
2022/08/06 10:03:17;;;;;;;3.90;3.30;;;;;;;;;;105523;1301;25249;-29
2022/08/06 10:05:43;;;;;;;3.20;3.00;;;;;;;;;;105596;1296;26559;-31
2022/08/06 10:08:10;;;;;;;3.90;2.90;;;;;;;;;;105554;1301;25232;-29
2022/08/06 10:10:38;;;;;;;8.40;3.40;;;;;;;;;;105613;1296;25391;-30
2022/08/06 10:13:07;;;;;;;3.30;2.40;;;;;;;;;;105591;1299;25238;-27
2022/08/06 10:15:32;;;;;;;3.60;3.20;;;;;;;;;;105609;1298;25248;-26
2022/08/06 10:17:57;;;;;;;4.00;2.10;;;;;;;;;;105609;1299;26587;-31
2022/08/06 10:20:24;;;;;;;5.10;2.50;;;;;;;;;;105555;1304;22888;-30
2022/08/06 10:22:53;;;;;;;6.00;3.10;;;;;;;;;;105644;1298;25237;-29
2022/08/06 10:25:19;;;;;;;3.00;2.80;;;;;;;;;;105588;1299;25238;-29
2022/08/06 10:27:44;;;;;;;2.80;2.40;;;;;;;;;;104786;1296;1003789;-25
2022/08/06 10:30:10;;;;;;;3.90;2.60;;;;;;;;;;105544;1303;25337;-29
2022/08/06 10:32:36;;;;;;;2.50;2.20;;;;;;;;;;105579;1303;25340;-25
2022/08/06 10:35:03;;;;;;;6.60;2.60;;;;;;;;;;105564;1303;25238;-27
2022/08/06 10:37:28;;;;;;;1.80;1.60;;;;;;;;;;105552;1303;26545;-31
2022/08/06 10:39:56;;;;;;;2.10;1.80;;;;;;;;;;105578;1296;25280;-25
2022/08/06 10:42:21;;;;;;;3.40;2.40;;;;;;;;;;105372;1303;25349;-31
2022/08/06 10:44:47;;;;;;;1.60;1.00;;;;;;;;;;105581;1302;25235;-31
2022/08/06 10:47:12;;;;;;;1.70;1.30;;;;;;;;;;105623;1304;26466;-30
2022/08/06 10:49:38;;;;;;;2.10;1.50;;;;;;;;;;105567;1296;22450;-29
2022/08/06 10:52:03;;;;;;;4.20;2.00;;;;;;;;;;105659;1302;26435;-26
2022/08/06 10:54:29;;;;;;;2.10;1.70;;;;;;;;;;105557;1296;25229;-29
2022/08/06 10:56:54;;;;;;;2.20;2.10;;;;;;;;;;105555;1301;25387;-25
2022/08/06 10:59:20;;;;;;;3.30;1.80;;;;;;;;;;105525;1302;26477;-25
2022/08/06 11:01:49;;;;;;;1.90;1.60;;;;;;;;;;105590;1289;25197;-27
2022/08/06 11:04:18;;;;;;;2.80;1.50;;;;;;;;;;105637;1299;25240;-25
2022/08/06 11:06:51;;;;;;;6.20;2.30;;;;;;;;;;105533;1283;25229;-25
2022/08/06 11:09:17;;;;;;;2.40;1.30;;;;;;;;;;105506;1302;25197;-25
2022/08/06 11:11:46;;;;;;;2.50;1.70;;;;;;;;;;105567;1302;25339;-27
2022/08/06 11:14:11;;;;;;;2.90;1.50;;;;;;;;;;105626;1301;25223;-28
2022/08/06 11:16:37;;;;;;;1.80;1.40;;;;;;;;;;105532;1302;25264;-25
2022/08/06 11:19:04;;;;;;;2.00;1.60;;;;;;;;;;105578;1303;25238;-26
2022/08/06 11:21:34;;;;;;;1.90;1.00;;;;;;;;;;105542;1289;22533;-27
2022/08/06 11:24:00;;;;;;;1.40;1.20;;;;;;;;;;105602;1303;25298;-29
2022/08/06 11:26:29;;;;;;;7.50;1.80;;;;;;;;;;105608;1303;25238;-31
2022/08/06 11:28:55;;;;;;;3.00;1.60;;;;;;;;;;105531;1302;25325;-31
2022/08/06 11:31:29;;;;;;;1.60;0.90;;;;;;;;;;105473;1302;25254;-31
2022/08/06 11:33:58;;;;;;;2.00;1.10;;;;;;;;;;105451;1303;25452;-29
2022/08/06 11:36:24;;;;;;;2.90;1.90;;;;;;;;;;105629;1296;25247;-26
2022/08/06 11:38:53;;;;;;;2.00;1.40;;;;;;;;;;105513;1298;22541;-26
2022/08/06 11:41:21;;;;;;;1.90;1.20;;;;;;;;;;105639;1303;25221;-26
2022/08/06 11:43:50;;;;;;;1.40;0.80;;;;;;;;;;105625;1296;25184;-30
2022/08/06 11:46:16;;;;;;;1.00;0.70;;;;;;;;;;105614;1302;25231;-29
2022/08/06 11:48:45;;;;;;;2.20;1.40;;;;;;;;;;105569;1303;25291;-27
2022/08/06 11:51:14;;;;;;;1.30;1.10;;;;;;;;;;105583;1302;25314;-29
2022/08/06 11:53:40;;;;;;;1.00;0.60;;;;;;;;;;105605;1302;25238;-25
2022/08/06 11:56:05;;;;;;;2.00;1.30;;;;;;;;;;105579;1302;25348;-25
2022/08/06 11:58:31;;;;;;;2.20;1.10;;;;;;;;;;105399;1299;25356;-26
2022/08/06 12:00:58;;;;;;;1.80;1.10;;;;;;;;;;105382;1299;22438;-30
2022/08/06 12:03:26;;;;;;;2.00;0.70;;;;;;;;;;105420;1303;22532;-26
2022/08/06 12:05:52;;;;;;;2.70;1.00;;;;;;;;;;105379;1299;25307;-24
2022/08/06 12:08:19;;;;;;;1.50;1.00;;;;;;;;;;105639;1296;25203;-29
2022/08/06 12:10:48;;;;;;;2.90;1.10;;;;;;;;;;105566;1302;25237;-28
2022/08/06 12:13:17;;;;;;;1.50;0.90;;;;;;;;;;105533;1299;25247;-27
2022/08/06 12:15:42;;;;;;;1.40;0.60;;;;;;;;;;105599;1296;25301;-27
2022/08/06 12:18:08;;;;;;;1.20;0.80;;;;;;;;;;105584;1302;25238;-29
2022/08/06 12:20:35;;;;;;;1.40;0.50;;;;;;;;;;105575;1296;25261;-27
2022/08/06 12:23:01;;;;;;;1.10;0.70;;;;;;;;;;105582;1303;25304;-26
2022/08/06 12:25:30;;;;;;;1.40;0.60;;;;;;;;;;105561;1296;25177;-29
2022/08/06 12:27:56;;;;;;;1.10;0.70;;;;;;;;;;105579;1302;25237;-29
2022/08/06 12:30:21;;;;;;;0.70;0.60;;;;;;;;;;105232;1304;25219;-30
2022/08/06 12:32:47;;;;;;;1.50;0.60;;;;;;;;;;105527;1302;25440;-31
2022/08/06 12:35:12;;;;;;;1.60;0.50;;;;;;;;;;105586;1296;25228;-25
2022/08/06 12:37:40;;;;;;;3.50;0.90;;;;;;;;;;105567;1296;25197;-30
2022/08/06 12:42:35;;;;;;;2.00;1.00;;;;;;;;;;105625;1291;22596;-26
2022/08/06 12:45:01;;;;;;;1.20;0.60;;;;;;;;;;105514;1296;25244;-26
2022/08/06 12:47:26;;;;;;;2.80;1.10;;;;;;;;;;105585;1296;25356;-25
2022/08/06 12:49:53;;;;;;;2.80;0.60;;;;;;;;;;105594;1303;25261;-26
2022/08/06 12:52:20;;;;;;;0.70;0.50;;;;;;;;;;105623;1296;25223;-31
2022/08/06 12:54:46;;;;;;;1.50;0.70;;;;;;;;;;105650;1288;25197;-27
2022/08/06 12:57:15;;;;;;;2.50;0.80;;;;;;;;;;105564;1299;25235;-25
2022/08/06 12:59:41;;;;;;;0.70;0.50;;;;;;;;;;105529;1296;25257;-27
2022/08/06 13:02:06;;;;;;;2.50;0.80;;;;;;;;;;105571;1296;25282;-31
2022/08/06 13:04:32;;;;;;;7.00;1.00;;;;;;;;;;105562;1295;25345;-29
2022/08/06 13:06:59;;;;;;;3.10;0.60;;;;;;;;;;105425;1297;25245;-27
2022/08/06 13:09:28;;;;;;;1.40;0.60;;;;;;;;;;105527;1299;25244;-31
2022/08/06 13:11:53;;;;;;;1.10;0.60;;;;;;;;;;105633;1301;25311;-30
2022/08/06 13:14:19;;;;;;;1.60;0.40;;;;;;;;;;105614;1299;26574;-26
2022/08/06 13:16:45;;;;;;;1.30;0.60;;;;;;;;;;105553;1296;25347;-30
2022/08/06 13:19:12;;;;;;;1.20;0.80;;;;;;;;;;105526;1299;25238;-29
2022/08/06 13:21:39;;;;;;;1.80;0.60;;;;;;;;;;105453;1295;24245;-32
2022/08/06 13:24:05;;;;;;;0.90;0.60;;;;;;;;;;105383;1302;25310;-27
2022/08/06 13:26:31;;;;;;;1.40;0.60;;;;;;;;;;105638;1299;26581;-28
2022/08/06 13:29:00;;;;;;;1.20;0.60;;;;;;;;;;105593;1296;25270;-26
2022/08/06 13:31:26;;;;;;;0.40;0.30;;;;;;;;;;105550;1303;25242;-27
2022/08/06 13:33:55;;;;;;;0.70;0.50;;;;;;;;;;105558;1296;25234;-28
2022/08/06 13:36:20;;;;;;;0.70;0.50;;;;;;;;;;105579;1296;25248;-24
2022/08/06 13:38:45;;;;;;;1.10;0.80;;;;;;;;;;105534;1296;25219;-29
2022/08/06 13:41:11;;;;;;;1.30;0.50;;;;;;;;;;105560;1304;25349;-31
2022/08/06 13:43:41;;;;;;;2.60;0.40;;;;;;;;;;105573;1296;25346;-29
2022/08/06 13:46:08;;;;;;;2.70;0.40;;;;;;;;;;105553;1295;25231;-26
2022/08/06 13:48:33;;;;;;;1.00;0.60;;;;;;;;;;105521;1299;25323;-26
2022/08/06 13:50:59;;;;;;;3.20;0.80;;;;;;;;;;105082;1296;608376;-26
2022/08/06 13:53:24;;;;;;;5.00;0.80;;;;;;;;;;105520;1299;25246;-26
2022/08/06 13:55:50;;;;;;;6.20;0.60;;;;;;;;;;105499;1299;25229;-23
2022/08/06 13:58:15;;;;;;;0.90;0.40;;;;;;;;;;105569;1295;28864;-30
2022/08/06 14:00:42;;;;;;;1.10;0.60;;;;;;;;;;105575;1299;25377;-25
2022/08/06 14:03:07;;;;;;;0.70;0.40;;;;;;;;;;105587;1296;25286;-29
2022/08/06 14:05:33;;;;;;;0.70;0.50;;;;;;;;;;105551;1299;25257;-29
2022/08/06 14:07:58;;;;;;;0.80;0.40;;;;;;;;;;105599;1296;25234;-26
2022/08/06 14:10:24;;;;;;;1.10;0.50;;;;;;;;;;105543;1299;22538;-29
2022/08/06 14:15:18;;;;;;;0.90;0.70;;;;;;;;;;105545;1299;25371;-26
2022/08/06 14:17:44;;;;;;;2.90;0.70;;;;;;;;;;105552;1296;25311;-25
2022/08/06 14:20:09;;;;;;;0.70;0.50;;;;;;;;;;105627;1290;22844;-29
2022/08/06 14:22:35;;;;;;;0.40;0.40;;;;;;;;;;105596;1299;25310;-24
2022/08/06 14:25:00;;;;;;;6.70;0.60;;;;;;;;;;105530;1296;24545;-28
2022/08/06 14:27:26;;;;;;;2.40;0.80;;;;;;;;;;105323;1304;25447;-25
2022/08/06 14:29:52;;;;;;;1.70;0.50;;;;;;;;;;105357;1298;25280;-25
2022/08/06 14:32:17;;;;;;;0.60;0.50;;;;;;;;;;105541;1299;25196;-27